sensor_id;sensor_type;location;lat;lon;timestamp;P1;durP1;ratioP1;P2;durP2;ratioP2
25409;SDS011;13339;50.840;4.346;2023-01-06T00:00:28;7.33;;;2.60;;
25409;SDS011;13339;50.840;4.346;2023-01-06T00:02:53;8.90;;;2.17;;
25409;SDS011;13339;50.840;4.346;2023-01-06T00:05:19;10.50;;;2.60;;
25409;SDS011;13339;50.840;4.346;2023-01-06T00:07:47;8.40;;;2.27;;
25409;SDS011;13339;50.840;4.346;2023-01-06T00:10:13;9.10;;;2.40;;
25409;SDS011;13339;50.840;4.346;2023-01-06T00:12:39;7.80;;;2.23;;
25409;SDS011;13339;50.840;4.346;2023-01-06T00:15:04;6.97;;;1.97;;
25409;SDS011;13339;50.840;4.346;2023-01-06T00:17:30;4.47;;;1.90;;
25409;SDS011;13339;50.840;4.346;2023-01-06T00:19:56;5.90;;;2.10;;
25409;SDS011;13339;50.840;4.346;2023-01-06T00:22:22;4.70;;;1.80;;
25409;SDS011;13339;50.840;4.346;2023-01-06T00:24:47;5.23;;;1.80;;
25409;SDS011;13339;50.840;4.346;2023-01-06T00:27:13;4.70;;;2.00;;
25409;SDS011;13339;50.840;4.346;2023-01-06T00:29:39;9.60;;;1.73;;
25409;SDS011;13339;50.840;4.346;2023-01-06T00:32:04;4.67;;;1.60;;
25409;SDS011;13339;50.840;4.346;2023-01-06T00:34:30;4.70;;;1.70;;
25409;SDS011;13339;50.840;4.346;2023-01-06T00:36:55;4.80;;;2.20;;
25409;SDS011;13339;50.840;4.346;2023-01-06T00:39:21;5.20;;;1.23;;
25409;SDS011;13339;50.840;4.346;2023-01-06T00:41:47;3.27;;;1.50;;
25409;SDS011;13339;50.840;4.346;2023-01-06T00:44:41;5.60;;;1.53;;
25409;SDS011;13339;50.840;4.346;2023-01-06T00:47:08;3.37;;;1.47;;
25409;SDS011;13339;50.840;4.346;2023-01-06T00:49:34;5.73;;;1.40;;
25409;SDS011;13339;50.840;4.346;2023-01-06T00:52:00;5.40;;;1.50;;
25409;SDS011;13339;50.840;4.346;2023-01-06T00:54:27;4.27;;;1.50;;
25409;SDS011;13339;50.840;4.346;2023-01-06T00:56:53;6.07;;;1.50;;
25409;SDS011;13339;50.840;4.346;2023-01-06T00:59:20;5.40;;;1.43;;
25409;SDS011;13339;50.840;4.346;2023-01-06T01:01:47;3.97;;;1.20;;
25409;SDS011;13339;50.840;4.346;2023-01-06T01:04:15;7.53;;;2.07;;
25409;SDS011;13339;50.840;4.346;2023-01-06T01:06:41;6.70;;;1.40;;
25409;SDS011;13339;50.840;4.346;2023-01-06T01:09:09;6.37;;;1.40;;
25409;SDS011;13339;50.840;4.346;2023-01-06T01:11:37;3.87;;;1.47;;
25409;SDS011;13339;50.840;4.346;2023-01-06T01:14:29;4.30;;;1.47;;
25409;SDS011;13339;50.840;4.346;2023-01-06T01:16:54;3.73;;;1.30;;
25409;SDS011;13339;50.840;4.346;2023-01-06T01:19:20;6.10;;;1.80;;
25409;SDS011;13339;50.840;4.346;2023-01-06T01:21:46;5.43;;;1.40;;
25409;SDS011;13339;50.840;4.346;2023-01-06T01:24:12;2.80;;;1.40;;
25409;SDS011;13339;50.840;4.346;2023-01-06T01:26:38;4.07;;;1.40;;
25409;SDS011;13339;50.840;4.346;2023-01-06T01:29:04;7.20;;;1.70;;
25409;SDS011;13339;50.840;4.346;2023-01-06T01:31:29;3.47;;;1.77;;
25409;SDS011;13339;50.840;4.346;2023-01-06T01:33:56;2.83;;;1.30;;
25409;SDS011;13339;50.840;4.346;2023-01-06T01:36:21;6.90;;;1.90;;
25409;SDS011;13339;50.840;4.346;2023-01-06T01:38:47;6.70;;;1.80;;
25409;SDS011;13339;50.840;4.346;2023-01-06T01:41:14;6.43;;;2.50;;
25409;SDS011;13339;50.840;4.346;2023-01-06T01:43:45;4.93;;;1.63;;
25409;SDS011;13339;50.840;4.346;2023-01-06T01:46:12;4.47;;;1.80;;
25409;SDS011;13339;50.840;4.346;2023-01-06T01:49:01;5.23;;;1.53;;
25409;SDS011;13339;50.840;4.346;2023-01-06T01:51:39;5.07;;;1.70;;
25409;SDS011;13339;50.840;4.346;2023-01-06T01:54:08;3.63;;;1.50;;
25409;SDS011;13339;50.840;4.346;2023-01-06T01:56:37;7.23;;;1.47;;
25409;SDS011;13339;50.840;4.346;2023-01-06T01:59:20;6.80;;;1.90;;
25409;SDS011;13339;50.840;4.346;2023-01-06T02:01:49;3.60;;;1.87;;
25409;SDS011;13339;50.840;4.346;2023-01-06T02:04:16;5.47;;;1.50;;
25409;SDS011;13339;50.840;4.346;2023-01-06T02:06:43;7.33;;;2.43;;
25409;SDS011;13339;50.840;4.346;2023-01-06T02:11:50;5.43;;;1.60;;
25409;SDS011;13339;50.840;4.346;2023-01-06T02:14:18;5.33;;;2.20;;
25409;SDS011;13339;50.840;4.346;2023-01-06T02:33:19;3.93;;;1.33;;
25409;SDS011;13339;50.840;4.346;2023-01-06T02:38:59;5.17;;;1.17;;
25409;SDS011;13339;50.840;4.346;2023-01-06T02:44:27;3.57;;;1.40;;
25409;SDS011;13339;50.840;4.346;2023-01-06T02:52:22;3.87;;;1.10;;
25409;SDS011;13339;50.840;4.346;2023-01-06T02:57:52;2.37;;;1.10;;
25409;SDS011;13339;50.840;4.346;2023-01-06T03:02:49;5.63;;;1.47;;
25409;SDS011;13339;50.840;4.346;2023-01-06T03:05:28;5.70;;;1.33;;
25409;SDS011;13339;50.840;4.346;2023-01-06T03:07:56;2.93;;;1.23;;
25409;SDS011;13339;50.840;4.346;2023-01-06T03:10:24;2.00;;;0.97;;
25409;SDS011;13339;50.840;4.346;2023-01-06T03:15:25;3.10;;;1.20;;
25409;SDS011;13339;50.840;4.346;2023-01-06T03:17:51;2.20;;;1.07;;
25409;SDS011;13339;50.840;4.346;2023-01-06T03:20:17;3.80;;;1.10;;
25409;SDS011;13339;50.840;4.346;2023-01-06T03:22:43;5.70;;;1.27;;
25409;SDS011;13339;50.840;4.346;2023-01-06T03:25:08;3.90;;;0.97;;
25409;SDS011;13339;50.840;4.346;2023-01-06T03:27:35;2.97;;;0.90;;
25409;SDS011;13339;50.840;4.346;2023-01-06T03:30:02;3.70;;;1.07;;
25409;SDS011;13339;50.840;4.346;2023-01-06T03:48:29;4.80;;;1.20;;
25409;SDS011;13339;50.840;4.346;2023-01-06T03:51:13;2.03;;;0.87;;
25409;SDS011;13339;50.840;4.346;2023-01-06T03:56:50;5.30;;;1.20;;
25409;SDS011;13339;50.840;4.346;2023-01-06T03:59:21;1.33;;;0.83;;
25409;SDS011;13339;50.840;4.346;2023-01-06T04:01:50;4.53;;;1.40;;
25409;SDS011;13339;50.840;4.346;2023-01-06T04:04:16;3.97;;;1.00;;
25409;SDS011;13339;50.840;4.346;2023-01-06T04:06:42;1.93;;;1.20;;
25409;SDS011;13339;50.840;4.346;2023-01-06T04:09:08;2.10;;;0.83;;
25409;SDS011;13339;50.840;4.346;2023-01-06T04:11:35;3.33;;;1.17;;
25409;SDS011;13339;50.840;4.346;2023-01-06T04:14:19;1.97;;;1.00;;
25409;SDS011;13339;50.840;4.346;2023-01-06T04:16:44;3.00;;;1.33;;
25409;SDS011;13339;50.840;4.346;2023-01-06T04:19:10;4.10;;;0.90;;
25409;SDS011;13339;50.840;4.346;2023-01-06T04:21:36;3.13;;;1.13;;
25409;SDS011;13339;50.840;4.346;2023-01-06T04:24:01;2.33;;;1.10;;
25409;SDS011;13339;50.840;4.346;2023-01-06T04:26:27;5.40;;;1.00;;
25409;SDS011;13339;50.840;4.346;2023-01-06T04:28:53;5.63;;;1.20;;
25409;SDS011;13339;50.840;4.346;2023-01-06T04:31:19;4.13;;;1.20;;
25409;SDS011;13339;50.840;4.346;2023-01-06T04:33:44;4.47;;;1.07;;
25409;SDS011;13339;50.840;4.346;2023-01-06T04:36:10;3.37;;;0.90;;
25409;SDS011;13339;50.840;4.346;2023-01-06T04:38:35;4.23;;;1.23;;
25409;SDS011;13339;50.840;4.346;2023-01-06T04:41:01;3.40;;;0.87;;
25409;SDS011;13339;50.840;4.346;2023-01-06T04:43:27;2.53;;;1.10;;
25409;SDS011;13339;50.840;4.346;2023-01-06T04:45:52;2.20;;;0.70;;
25409;SDS011;13339;50.840;4.346;2023-01-06T04:48:18;2.50;;;1.00;;
25409;SDS011;13339;50.840;4.346;2023-01-06T04:50:43;3.57;;;0.87;;
25409;SDS011;13339;50.840;4.346;2023-01-06T04:53:10;1.67;;;0.97;;
25409;SDS011;13339;50.840;4.346;2023-01-06T04:55:37;2.23;;;0.80;;
25409;SDS011;13339;50.840;4.346;2023-01-06T04:58:03;4.17;;;1.00;;
25409;SDS011;13339;50.840;4.346;2023-01-06T05:00:29;1.93;;;0.93;;
25409;SDS011;13339;50.840;4.346;2023-01-06T05:02:54;5.73;;;0.90;;
25409;SDS011;13339;50.840;4.346;2023-01-06T05:05:20;1.83;;;0.73;;
25409;SDS011;13339;50.840;4.346;2023-01-06T05:07:45;2.97;;;0.90;;
25409;SDS011;13339;50.840;4.346;2023-01-06T05:10:11;1.83;;;0.93;;
25409;SDS011;13339;50.840;4.346;2023-01-06T05:12:37;4.20;;;1.50;;
25409;SDS011;13339;50.840;4.346;2023-01-06T05:15:02;1.80;;;1.30;;
25409;SDS011;13339;50.840;4.346;2023-01-06T05:17:28;3.57;;;1.10;;
25409;SDS011;13339;50.840;4.346;2023-01-06T05:19:54;1.30;;;0.83;;
25409;SDS011;13339;50.840;4.346;2023-01-06T05:22:19;3.40;;;1.30;;
25409;SDS011;13339;50.840;4.346;2023-01-06T05:24:45;8.40;;;1.10;;
25409;SDS011;13339;50.840;4.346;2023-01-06T05:27:11;3.53;;;1.00;;
25409;SDS011;13339;50.840;4.346;2023-01-06T05:29:36;1.73;;;1.00;;
25409;SDS011;13339;50.840;4.346;2023-01-06T05:32:02;1.83;;;0.87;;
25409;SDS011;13339;50.840;4.346;2023-01-06T05:34:29;2.87;;;1.17;;
25409;SDS011;13339;50.840;4.346;2023-01-06T05:36:54;3.73;;;1.00;;
25409;SDS011;13339;50.840;4.346;2023-01-06T05:39:20;1.83;;;0.93;;
25409;SDS011;13339;50.840;4.346;2023-01-06T05:41:46;2.50;;;1.00;;
25409;SDS011;13339;50.840;4.346;2023-01-06T05:44:12;3.00;;;1.13;;
25409;SDS011;13339;50.840;4.346;2023-01-06T05:46:38;2.23;;;0.73;;
25409;SDS011;13339;50.840;4.346;2023-01-06T05:49:03;2.77;;;1.00;;
25409;SDS011;13339;50.840;4.346;2023-01-06T05:51:29;2.00;;;0.90;;
25409;SDS011;13339;50.840;4.346;2023-01-06T05:53:54;1.70;;;1.00;;
25409;SDS011;13339;50.840;4.346;2023-01-06T05:56:21;1.10;;;0.80;;
25409;SDS011;13339;50.840;4.346;2023-01-06T05:58:48;0.90;;;0.70;;
25409;SDS011;13339;50.840;4.346;2023-01-06T06:03:40;1.27;;;0.90;;
25409;SDS011;13339;50.840;4.346;2023-01-06T06:06:06;1.20;;;0.70;;
25409;SDS011;13339;50.840;4.346;2023-01-06T06:08:32;1.63;;;1.03;;
25409;SDS011;13339;50.840;4.346;2023-01-06T06:11:01;0.90;;;0.70;;
25409;SDS011;13339;50.840;4.346;2023-01-06T06:13:28;2.20;;;0.80;;
25409;SDS011;13339;50.840;4.346;2023-01-06T06:18:33;1.93;;;0.60;;
25409;SDS011;13339;50.840;4.346;2023-01-06T06:21:03;1.33;;;0.80;;
25409;SDS011;13339;50.840;4.346;2023-01-06T06:23:29;1.93;;;0.83;;
25409;SDS011;13339;50.840;4.346;2023-01-06T06:25:55;2.30;;;1.00;;
25409;SDS011;13339;50.840;4.346;2023-01-06T06:28:21;0.93;;;0.60;;
25409;SDS011;13339;50.840;4.346;2023-01-06T06:30:46;1.87;;;0.83;;
25409;SDS011;13339;50.840;4.346;2023-01-06T06:33:12;3.40;;;1.10;;
25409;SDS011;13339;50.840;4.346;2023-01-06T06:35:37;1.93;;;0.90;;
25409;SDS011;13339;50.840;4.346;2023-01-06T06:38:03;1.87;;;0.67;;
25409;SDS011;13339;50.840;4.346;2023-01-06T06:40:28;1.73;;;0.80;;
25409;SDS011;13339;50.840;4.346;2023-01-06T06:42:54;1.37;;;0.80;;
25409;SDS011;13339;50.840;4.346;2023-01-06T06:45:19;3.13;;;0.70;;
25409;SDS011;13339;50.840;4.346;2023-01-06T06:47:45;0.67;;;0.63;;
25409;SDS011;13339;50.840;4.346;2023-01-06T06:50:11;1.53;;;0.80;;
25409;SDS011;13339;50.840;4.346;2023-01-06T06:52:37;1.77;;;0.87;;
25409;SDS011;13339;50.840;4.346;2023-01-06T06:55:03;1.23;;;0.70;;
25409;SDS011;13339;50.840;4.346;2023-01-06T06:57:29;4.53;;;0.90;;
25409;SDS011;13339;50.840;4.346;2023-01-06T06:59:54;1.47;;;0.70;;
25409;SDS011;13339;50.840;4.346;2023-01-06T07:02:20;0.80;;;0.80;;
25409;SDS011;13339;50.840;4.346;2023-01-06T07:04:46;1.73;;;1.00;;
25409;SDS011;13339;50.840;4.346;2023-01-06T07:07:12;1.70;;;0.90;;
25409;SDS011;13339;50.840;4.346;2023-01-06T07:09:38;1.73;;;0.80;;
25409;SDS011;13339;50.840;4.346;2023-01-06T07:12:03;3.23;;;0.90;;
25409;SDS011;13339;50.840;4.346;2023-01-06T07:14:29;1.20;;;0.70;;
25409;SDS011;13339;50.840;4.346;2023-01-06T07:16:58;3.97;;;1.00;;
25409;SDS011;13339;50.840;4.346;2023-01-06T07:19:24;0.73;;;0.73;;
25409;SDS011;13339;50.840;4.346;2023-01-06T07:21:50;1.43;;;0.70;;
25409;SDS011;13339;50.840;4.346;2023-01-06T07:24:15;2.10;;;0.70;;
25409;SDS011;13339;50.840;4.346;2023-01-06T07:26:41;10.03;;;0.90;;
25409;SDS011;13339;50.840;4.346;2023-01-06T07:29:07;1.50;;;0.80;;
25409;SDS011;13339;50.840;4.346;2023-01-06T07:31:32;1.03;;;0.93;;
25409;SDS011;13339;50.840;4.346;2023-01-06T07:33:58;3.83;;;1.10;;
25409;SDS011;13339;50.840;4.346;2023-01-06T07:36:23;1.50;;;0.97;;
25409;SDS011;13339;50.840;4.346;2023-01-06T07:38:49;1.73;;;1.00;;
25409;SDS011;13339;50.840;4.346;2023-01-06T07:41:14;1.37;;;0.90;;
25409;SDS011;13339;50.840;4.346;2023-01-06T07:43:40;3.53;;;0.90;;
25409;SDS011;13339;50.840;4.346;2023-01-06T07:46:05;1.73;;;1.27;;
25409;SDS011;13339;50.840;4.346;2023-01-06T07:48:31;3.58;;;1.20;;
25409;SDS011;13339;50.840;4.346;2023-01-06T07:50:57;2.67;;;1.30;;
25409;SDS011;13339;50.840;4.346;2023-01-06T07:53:22;1.63;;;1.20;;
25409;SDS011;13339;50.840;4.346;2023-01-06T07:55:51;1.93;;;1.50;;
25409;SDS011;13339;50.840;4.346;2023-01-06T07:58:18;6.40;;;1.13;;
25409;SDS011;13339;50.840;4.346;2023-01-06T08:00:44;3.67;;;1.77;;
25409;SDS011;13339;50.840;4.346;2023-01-06T08:03:09;2.13;;;1.10;;
25409;SDS011;13339;50.840;4.346;2023-01-06T08:05:38;3.60;;;1.20;;
25409;SDS011;13339;50.840;4.346;2023-01-06T08:08:06;1.60;;;1.20;;
25409;SDS011;13339;50.840;4.346;2023-01-06T08:10:32;2.47;;;1.43;;
25409;SDS011;13339;50.840;4.346;2023-01-06T08:12:57;3.90;;;1.33;;
25409;SDS011;13339;50.840;4.346;2023-01-06T08:15:23;2.30;;;1.30;;
25409;SDS011;13339;50.840;4.346;2023-01-06T08:17:53;4.00;;;1.23;;
25409;SDS011;13339;50.840;4.346;2023-01-06T08:20:19;2.13;;;1.70;;
25409;SDS011;13339;50.840;4.346;2023-01-06T08:22:45;4.27;;;1.20;;
25409;SDS011;13339;50.840;4.346;2023-01-06T08:25:10;4.20;;;1.47;;
25409;SDS011;13339;50.840;4.346;2023-01-06T08:27:36;3.37;;;1.33;;
25409;SDS011;13339;50.840;4.346;2023-01-06T08:30:02;1.60;;;1.50;;
25409;SDS011;13339;50.840;4.346;2023-01-06T08:32:28;4.17;;;1.50;;
25409;SDS011;13339;50.840;4.346;2023-01-06T08:34:53;4.83;;;1.73;;
25409;SDS011;13339;50.840;4.346;2023-01-06T08:37:19;5.03;;;1.60;;
25409;SDS011;13339;50.840;4.346;2023-01-06T08:39:45;3.77;;;1.60;;
25409;SDS011;13339;50.840;4.346;2023-01-06T08:42:10;3.07;;;1.43;;
25409;SDS011;13339;50.840;4.346;2023-01-06T08:44:37;2.13;;;1.40;;
25409;SDS011;13339;50.840;4.346;2023-01-06T08:47:02;2.57;;;1.50;;
25409;SDS011;13339;50.840;4.346;2023-01-06T08:49:28;5.03;;;1.60;;
25409;SDS011;13339;50.840;4.346;2023-01-06T08:51:54;4.53;;;1.67;;
25409;SDS011;13339;50.840;4.346;2023-01-06T08:54:19;3.07;;;1.70;;
25409;SDS011;13339;50.840;4.346;2023-01-06T08:56:45;3.33;;;2.00;;
25409;SDS011;13339;50.840;4.346;2023-01-06T08:59:14;5.03;;;2.43;;
25409;SDS011;13339;50.840;4.346;2023-01-06T09:01:41;4.67;;;1.80;;
25409;SDS011;13339;50.840;4.346;2023-01-06T09:04:08;6.40;;;1.90;;
25409;SDS011;13339;50.840;4.346;2023-01-06T09:06:34;2.57;;;1.90;;
25409;SDS011;13339;50.840;4.346;2023-01-06T09:09:01;3.80;;;1.80;;
25409;SDS011;13339;50.840;4.346;2023-01-06T09:11:28;8.70;;;1.87;;
25409;SDS011;13339;50.840;4.346;2023-01-06T09:13:54;2.40;;;2.00;;
25409;SDS011;13339;50.840;4.346;2023-01-06T09:16:20;5.20;;;2.50;;
25409;SDS011;13339;50.840;4.346;2023-01-06T09:18:46;5.63;;;2.20;;
25409;SDS011;13339;50.840;4.346;2023-01-06T09:21:14;3.10;;;1.90;;
25409;SDS011;13339;50.840;4.346;2023-01-06T09:23:41;4.10;;;2.80;;
25409;SDS011;13339;50.840;4.346;2023-01-06T09:26:07;5.13;;;2.97;;
25409;SDS011;13339;50.840;4.346;2023-01-06T09:28:33;5.17;;;4.67;;
25409;SDS011;13339;50.840;4.346;2023-01-06T09:30:59;2.70;;;2.43;;
25409;SDS011;13339;50.840;4.346;2023-01-06T09:33:25;5.17;;;3.30;;
25409;SDS011;13339;50.840;4.346;2023-01-06T09:35:50;3.87;;;2.83;;
25409;SDS011;13339;50.840;4.346;2023-01-06T09:38:16;4.67;;;4.17;;
25409;SDS011;13339;50.840;4.346;2023-01-06T09:46:41;2.10;;;1.90;;
25409;SDS011;13339;50.840;4.346;2023-01-06T09:52:04;4.40;;;2.43;;
25409;SDS011;13339;50.840;4.346;2023-01-06T09:55:04;5.27;;;2.60;;
25409;SDS011;13339;50.840;4.346;2023-01-06T09:57:44;7.07;;;4.67;;
25409;SDS011;13339;50.840;4.346;2023-01-06T10:00:19;3.47;;;3.17;;
25409;SDS011;13339;50.840;4.346;2023-01-06T10:02:46;5.63;;;3.13;;
25409;SDS011;13339;50.840;4.346;2023-01-06T10:05:19;3.47;;;2.07;;
25409;SDS011;13339;50.840;4.346;2023-01-06T10:10:54;3.70;;;2.47;;
25409;SDS011;13339;50.840;4.346;2023-01-06T10:24:45;4.73;;;3.50;;
25409;SDS011;13339;50.840;4.346;2023-01-06T10:30:02;3.20;;;2.00;;
25409;SDS011;13339;50.840;4.346;2023-01-06T10:32:32;3.50;;;2.50;;
25409;SDS011;13339;50.840;4.346;2023-01-06T10:35:00;4.20;;;2.93;;
25409;SDS011;13339;50.840;4.346;2023-01-06T10:40:14;4.83;;;2.40;;
25409;SDS011;13339;50.840;4.346;2023-01-06T10:45:19;4.20;;;2.60;;
25409;SDS011;13339;50.840;4.346;2023-01-06T10:47:51;3.63;;;2.70;;
25409;SDS011;13339;50.840;4.346;2023-01-06T10:50:17;2.60;;;1.87;;
25409;SDS011;13339;50.840;4.346;2023-01-06T10:52:44;4.93;;;3.90;;
25409;SDS011;13339;50.840;4.346;2023-01-06T10:55:25;1.80;;;1.60;;
25409;SDS011;13339;50.840;4.346;2023-01-06T10:58:02;1.97;;;1.83;;
25409;SDS011;13339;50.840;4.346;2023-01-06T11:03:21;1.80;;;1.70;;
25409;SDS011;13339;50.840;4.346;2023-01-06T11:05:46;2.30;;;2.10;;
25409;SDS011;13339;50.840;4.346;2023-01-06T11:08:25;1.33;;;1.20;;
25409;SDS011;13339;50.840;4.346;2023-01-06T11:10:52;2.53;;;1.73;;
25409;SDS011;13339;50.840;4.346;2023-01-06T11:15:59;2.00;;;1.83;;
25409;SDS011;13339;50.840;4.346;2023-01-06T11:18:29;2.60;;;1.60;;
25409;SDS011;13339;50.840;4.346;2023-01-06T11:21:04;2.30;;;2.00;;
25409;SDS011;13339;50.840;4.346;2023-01-06T11:23:35;3.53;;;2.63;;
25409;SDS011;13339;50.840;4.346;2023-01-06T11:28:30;3.80;;;3.07;;
25409;SDS011;13339;50.840;4.346;2023-01-06T11:31:01;2.73;;;2.07;;
25409;SDS011;13339;50.840;4.346;2023-01-06T11:33:30;4.33;;;2.67;;
25409;SDS011;13339;50.840;4.346;2023-01-06T11:35:58;3.07;;;2.70;;
25409;SDS011;13339;50.840;4.346;2023-01-06T11:41:44;4.77;;;3.00;;
25409;SDS011;13339;50.840;4.346;2023-01-06T11:44:16;6.85;;;3.70;;
25409;SDS011;13339;50.840;4.346;2023-01-06T11:46:48;3.83;;;3.10;;
25409;SDS011;13339;50.840;4.346;2023-01-06T11:49:23;4.27;;;2.63;;
25409;SDS011;13339;50.840;4.346;2023-01-06T11:52:00;3.80;;;2.47;;
25409;SDS011;13339;50.840;4.346;2023-01-06T11:54:33;2.40;;;2.00;;
25409;SDS011;13339;50.840;4.346;2023-01-06T12:02:24;3.23;;;1.93;;
25409;SDS011;13339;50.840;4.346;2023-01-06T12:04:56;2.77;;;2.00;;
25409;SDS011;13339;50.840;4.346;2023-01-06T12:10:03;3.77;;;2.53;;
25409;SDS011;13339;50.840;4.346;2023-01-06T12:12:36;5.30;;;2.90;;
25409;SDS011;13339;50.840;4.346;2023-01-06T12:15:02;2.97;;;2.33;;
25409;SDS011;13339;50.840;4.346;2023-01-06T12:17:39;5.20;;;3.10;;
25409;SDS011;13339;50.840;4.346;2023-01-06T12:20:22;4.53;;;2.97;;
25409;SDS011;13339;50.840;4.346;2023-01-06T12:23:09;2.90;;;2.30;;
25409;SDS011;13339;50.840;4.346;2023-01-06T12:25:44;3.53;;;3.07;;
25409;SDS011;13339;50.840;4.346;2023-01-06T12:30:51;2.97;;;2.23;;
25409;SDS011;13339;50.840;4.346;2023-01-06T12:41:46;2.63;;;2.43;;
25409;SDS011;13339;50.840;4.346;2023-01-06T12:44:24;2.50;;;2.30;;
25409;SDS011;13339;50.840;4.346;2023-01-06T12:47:12;4.07;;;2.60;;
25409;SDS011;13339;50.840;4.346;2023-01-06T12:49:54;2.90;;;2.30;;
25409;SDS011;13339;50.840;4.346;2023-01-06T12:55:07;2.70;;;2.13;;
25409;SDS011;13339;50.840;4.346;2023-01-06T12:57:53;4.30;;;2.30;;
25409;SDS011;13339;50.840;4.346;2023-01-06T13:06:12;10.90;;;3.27;;
25409;SDS011;13339;50.840;4.346;2023-01-06T13:09:01;3.30;;;2.50;;
25409;SDS011;13339;50.840;4.346;2023-01-06T13:14:35;4.97;;;2.37;;
25409;SDS011;13339;50.840;4.346;2023-01-06T13:20:19;4.80;;;2.20;;
25409;SDS011;13339;50.840;4.346;2023-01-06T13:28:09;3.60;;;2.50;;
25409;SDS011;13339;50.840;4.346;2023-01-06T13:41:32;2.47;;;2.17;;
25409;SDS011;13339;50.840;4.346;2023-01-06T13:44:00;3.17;;;2.10;;
25409;SDS011;13339;50.840;4.346;2023-01-06T13:46:29;3.73;;;2.83;;
25409;SDS011;13339;50.840;4.346;2023-01-06T13:49:00;5.27;;;2.60;;
25409;SDS011;13339;50.840;4.346;2023-01-06T13:51:35;3.27;;;2.50;;
25409;SDS011;13339;50.840;4.346;2023-01-06T13:54:04;2.23;;;2.00;;
25409;SDS011;13339;50.840;4.346;2023-01-06T13:56:30;2.13;;;1.90;;
25409;SDS011;13339;50.840;4.346;2023-01-06T13:59:18;3.33;;;2.20;;
25409;SDS011;13339;50.840;4.346;2023-01-06T14:01:48;5.23;;;2.70;;
25409;SDS011;13339;50.840;4.346;2023-01-06T14:07:00;3.13;;;2.30;;
25409;SDS011;13339;50.840;4.346;2023-01-06T14:09:26;1.97;;;1.70;;
25409;SDS011;13339;50.840;4.346;2023-01-06T14:11:52;3.73;;;1.80;;
25409;SDS011;13339;50.840;4.346;2023-01-06T14:14:22;3.37;;;1.87;;
25409;SDS011;13339;50.840;4.346;2023-01-06T14:16:51;5.17;;;2.00;;
25409;SDS011;13339;50.840;4.346;2023-01-06T14:19:19;3.77;;;1.97;;
25409;SDS011;13339;50.840;4.346;2023-01-06T14:24:46;2.70;;;2.00;;
25409;SDS011;13339;50.840;4.346;2023-01-06T14:27:14;2.93;;;1.73;;
25409;SDS011;13339;50.840;4.346;2023-01-06T14:32:06;2.27;;;1.90;;
25409;SDS011;13339;50.840;4.346;2023-01-06T14:34:33;2.07;;;1.87;;
25409;SDS011;13339;50.840;4.346;2023-01-06T14:37:00;3.17;;;2.10;;
25409;SDS011;13339;50.840;4.346;2023-01-06T14:39:27;4.57;;;2.03;;
25409;SDS011;13339;50.840;4.346;2023-01-06T14:41:58;2.30;;;1.97;;
25409;SDS011;13339;50.840;4.346;2023-01-06T14:44:32;3.27;;;1.97;;
25409;SDS011;13339;50.840;4.346;2023-01-06T14:47:10;2.80;;;1.90;;
25409;SDS011;13339;50.840;4.346;2023-01-06T14:52:31;2.87;;;1.57;;
25409;SDS011;13339;50.840;4.346;2023-01-06T14:54:59;4.07;;;1.80;;
25409;SDS011;13339;50.840;4.346;2023-01-06T14:57:34;5.93;;;1.97;;
25409;SDS011;13339;50.840;4.346;2023-01-06T15:02:43;1.97;;;1.80;;
25409;SDS011;13339;50.840;4.346;2023-01-06T15:05:18;1.63;;;1.50;;
25409;SDS011;13339;50.840;4.346;2023-01-06T15:10:32;1.80;;;1.70;;
25409;SDS011;13339;50.840;4.346;2023-01-06T15:13:13;3.33;;;2.20;;
25409;SDS011;13339;50.840;4.346;2023-01-06T15:16:30;3.60;;;1.93;;
25409;SDS011;13339;50.840;4.346;2023-01-06T15:18:42;3.47;;;2.13;;
25409;SDS011;13339;50.840;4.346;2023-01-06T15:21:09;2.70;;;2.10;;
25409;SDS011;13339;50.840;4.346;2023-01-06T15:23:36;3.40;;;1.87;;
25409;SDS011;13339;50.840;4.346;2023-01-06T15:26:27;2.47;;;1.53;;
25409;SDS011;13339;50.840;4.346;2023-01-06T15:28:57;4.13;;;1.53;;
25409;SDS011;13339;50.840;4.346;2023-01-06T15:31:24;4.17;;;1.97;;
25409;SDS011;13339;50.840;4.346;2023-01-06T15:33:50;2.93;;;1.70;;
25409;SDS011;13339;50.840;4.346;2023-01-06T15:36:19;5.10;;;2.00;;
25409;SDS011;13339;50.840;4.346;2023-01-06T15:38:46;3.70;;;1.80;;
25409;SDS011;13339;50.840;4.346;2023-01-06T15:41:14;2.70;;;1.80;;
25409;SDS011;13339;50.840;4.346;2023-01-06T15:43:59;1.73;;;1.60;;
25409;SDS011;13339;50.840;4.346;2023-01-06T15:46:26;3.20;;;1.83;;
25409;SDS011;13339;50.840;4.346;2023-01-06T15:48:59;1.50;;;1.40;;
25409;SDS011;13339;50.840;4.346;2023-01-06T15:51:26;1.93;;;1.60;;
25409;SDS011;13339;50.840;4.346;2023-01-06T15:53:56;4.53;;;2.00;;
25409;SDS011;13339;50.840;4.346;2023-01-06T15:56:23;2.27;;;1.53;;
25409;SDS011;13339;50.840;4.346;2023-01-06T15:58:51;2.67;;;1.53;;
25409;SDS011;13339;50.840;4.346;2023-01-06T16:01:20;3.60;;;2.10;;
25409;SDS011;13339;50.840;4.346;2023-01-06T16:03:50;1.97;;;1.70;;
25409;SDS011;13339;50.840;4.346;2023-01-06T16:08:53;3.40;;;2.10;;
25409;SDS011;13339;50.840;4.346;2023-01-06T16:11:41;3.03;;;2.00;;
25409;SDS011;13339;50.840;4.346;2023-01-06T16:14:28;5.43;;;2.20;;
25409;SDS011;13339;50.840;4.346;2023-01-06T16:19:44;3.90;;;2.70;;
25409;SDS011;13339;50.840;4.346;2023-01-06T16:22:23;6.40;;;2.23;;
25409;SDS011;13339;50.840;4.346;2023-01-06T16:25:21;3.03;;;1.80;;
25409;SDS011;13339;50.840;4.346;2023-01-06T16:27:53;2.43;;;2.17;;
25409;SDS011;13339;50.840;4.346;2023-01-06T16:32:49;4.87;;;2.30;;
25409;SDS011;13339;50.840;4.346;2023-01-06T16:35:18;6.33;;;2.80;;
25409;SDS011;13339;50.840;4.346;2023-01-06T16:37:45;6.37;;;2.30;;
25409;SDS011;13339;50.840;4.346;2023-01-06T16:40:12;3.77;;;2.30;;
25409;SDS011;13339;50.840;4.346;2023-01-06T16:42:39;5.50;;;3.40;;
25409;SDS011;13339;50.840;4.346;2023-01-06T16:45:18;3.60;;;2.47;;
25409;SDS011;13339;50.840;4.346;2023-01-06T16:47:48;4.60;;;2.83;;
25409;SDS011;13339;50.840;4.346;2023-01-06T16:50:16;3.40;;;2.40;;
25409;SDS011;13339;50.840;4.346;2023-01-06T16:53:34;3.23;;;2.40;;
25409;SDS011;13339;50.840;4.346;2023-01-06T16:55:35;3.93;;;3.30;;
25409;SDS011;13339;50.840;4.346;2023-01-06T16:58:04;4.20;;;2.90;;
25409;SDS011;13339;50.840;4.346;2023-01-06T17:00:43;4.50;;;2.90;;
25409;SDS011;13339;50.840;4.346;2023-01-06T17:03:15;3.47;;;2.97;;
25409;SDS011;13339;50.840;4.346;2023-01-06T17:05:43;5.87;;;3.50;;
25409;SDS011;13339;50.840;4.346;2023-01-06T17:08:13;4.70;;;3.43;;
25409;SDS011;13339;50.840;4.346;2023-01-06T17:10:40;3.53;;;3.10;;
25409;SDS011;13339;50.840;4.346;2023-01-06T17:13:07;4.43;;;3.40;;
25409;SDS011;13339;50.840;4.346;2023-01-06T17:16:10;5.13;;;3.70;;
25409;SDS011;13339;50.840;4.346;2023-01-06T17:18:48;6.67;;;4.00;;
25409;SDS011;13339;50.840;4.346;2023-01-06T17:21:22;4.77;;;4.10;;
25409;SDS011;13339;50.840;4.346;2023-01-06T17:23:53;8.57;;;4.77;;
25409;SDS011;13339;50.840;4.346;2023-01-06T17:26:19;6.03;;;4.67;;
25409;SDS011;13339;50.840;4.346;2023-01-06T17:28:46;5.47;;;4.73;;
25409;SDS011;13339;50.840;4.346;2023-01-06T17:31:14;9.40;;;5.80;;
25409;SDS011;13339;50.840;4.346;2023-01-06T17:33:42;19.90;;;10.23;;
25409;SDS011;13339;50.840;4.346;2023-01-06T17:36:17;36.47;;;17.63;;
25409;SDS011;13339;50.840;4.346;2023-01-06T17:38:50;11.70;;;7.80;;
25409;SDS011;13339;50.840;4.346;2023-01-06T17:41:16;5.77;;;5.17;;
25409;SDS011;13339;50.840;4.346;2023-01-06T17:43:43;8.30;;;6.70;;
25409;SDS011;13339;50.840;4.346;2023-01-06T17:46:29;7.10;;;4.80;;
25409;SDS011;13339;50.840;4.346;2023-01-06T17:51:43;6.73;;;5.70;;
25409;SDS011;13339;50.840;4.346;2023-01-06T17:54:16;9.17;;;5.63;;
25409;SDS011;13339;50.840;4.346;2023-01-06T17:57:10;7.07;;;5.40;;
25409;SDS011;13339;50.840;4.346;2023-01-06T17:59:39;7.60;;;5.90;;
25409;SDS011;13339;50.840;4.346;2023-01-06T18:02:11;9.63;;;6.57;;